<?xml version="1.0" encoding="UTF-8"?>
<gpx xmlns="http://www.topografix.com/GPX/1/1" xmlns:xsi="http://www.w3.org/2001/XMLSchema-instance" version="1.1" xsi:schemaLocation="http://www.topografix.com/GPX/1/1 http://www.topografix.com/GPX/1/1/gpx.xsd">
  <metadata>
    <name>3D SuperWOMAN Triathlon 2021 - Olympic Aquabike</name>
  </metadata>
  <trk>
    <name>3D SuperWOMAN Triathlon 2021 - Olympic Aquabike</name>
    <trkseg>
      <trkpt lat="42.149291" lon="-85.582071">
        <ele>262.530676</ele>
        <time>2021-08-14T08:20:00.000Z</time>
      </trkpt>
      <trkpt lat="42.14926" lon="-85.582048">
        <ele>262.53066</ele>
        <time>2021-08-14T08:20:00.000Z</time>
      </trkpt>
      <trkpt lat="42.148751" lon="-85.581725">
        <ele>262.530678</ele>
        <time>2021-08-14T08:20:06.000Z</time>
      </trkpt>
      <trkpt lat="42.148588" lon="-85.581661">
        <ele>262.530678</ele>
        <time>2021-08-14T08:20:08.000Z</time>
      </trkpt>
      <trkpt lat="42.148291" lon="-85.581675">
        <ele>262.615893</ele>
        <time>2021-08-14T08:20:11.000Z</time>
      </trkpt>
      <trkpt lat="42.147769" lon="-85.58202">
        <ele>262.904404</ele>
        <time>2021-08-14T08:20:17.000Z</time>
      </trkpt>
      <trkpt lat="42.146837" lon="-85.582386">
        <ele>263.401562</ele>
        <time>2021-08-14T08:20:28.000Z</time>
      </trkpt>
      <trkpt lat="42.146834" lon="-85.579401">
        <ele>264.572345</ele>
        <time>2021-08-14T08:20:53.000Z</time>
      </trkpt>
      <trkpt lat="42.146143" lon="-85.579384">
        <ele>264.766855</ele>
        <time>2021-08-14T08:21:01.000Z</time>
      </trkpt>
      <trkpt lat="42.145778" lon="-85.579368">
        <ele>264.869519</ele>
        <time>2021-08-14T08:21:05.000Z</time>
      </trkpt>
      <trkpt lat="42.144502" lon="-85.579364">
        <ele>264.990383</ele>
        <time>2021-08-14T08:21:19.000Z</time>
      </trkpt>
      <trkpt lat="42.14331" lon="-85.579336">
        <ele>265.000019</ele>
        <time>2021-08-14T08:21:32.000Z</time>
      </trkpt>
      <trkpt lat="42.143306" lon="-85.579023">
        <ele>265.000019</ele>
        <time>2021-08-14T08:21:35.000Z</time>
      </trkpt>
      <trkpt lat="42.143395" lon="-85.569422">
        <ele>264.956246</ele>
        <time>2021-08-14T08:22:54.000Z</time>
      </trkpt>
      <trkpt lat="42.138616" lon="-85.569339">
        <ele>264.481641</ele>
        <time>2021-08-14T08:23:47.000Z</time>
      </trkpt>
      <trkpt lat="42.13498" lon="-85.569275">
        <ele>263.845464</ele>
        <time>2021-08-14T08:24:27.000Z</time>
      </trkpt>
      <trkpt lat="42.128758" lon="-85.569162">
        <ele>261.787933</ele>
        <time>2021-08-14T08:25:36.000Z</time>
      </trkpt>
      <trkpt lat="42.128751" lon="-85.57018">
        <ele>261.617326</ele>
        <time>2021-08-14T08:25:44.000Z</time>
      </trkpt>
      <trkpt lat="42.128724" lon="-85.574103">
        <ele>261.15708</ele>
        <time>2021-08-14T08:26:16.000Z</time>
      </trkpt>
      <trkpt lat="42.128709" lon="-85.57602">
        <ele>261.151705</ele>
        <time>2021-08-14T08:26:32.000Z</time>
      </trkpt>
      <trkpt lat="42.128606" lon="-85.588647">
        <ele>263.391991</ele>
        <time>2021-08-14T08:28:16.000Z</time>
      </trkpt>
      <trkpt lat="42.128704" lon="-85.576008">
        <ele>261.095025</ele>
        <time>2021-08-14T08:30:00.000Z</time>
      </trkpt>
      <trkpt lat="42.128738" lon="-85.570192">
        <ele>261.496362</ele>
        <time>2021-08-14T08:30:48.000Z</time>
      </trkpt>
      <trkpt lat="42.128754" lon="-85.569162">
        <ele>261.541423</ele>
        <time>2021-08-14T08:30:56.000Z</time>
      </trkpt>
      <trkpt lat="42.123559" lon="-85.569089">
        <ele>261.766448</ele>
        <time>2021-08-14T08:31:54.000Z</time>
      </trkpt>
      <trkpt lat="42.12343" lon="-85.569072">
        <ele>261.76393</ele>
        <time>2021-08-14T08:31:55.000Z</time>
      </trkpt>
      <trkpt lat="42.122349" lon="-85.569064">
        <ele>261.744272</ele>
        <time>2021-08-14T08:32:07.000Z</time>
      </trkpt>
      <trkpt lat="42.121984" lon="-85.569051">
        <ele>261.667696</ele>
        <time>2021-08-14T08:32:11.000Z</time>
      </trkpt>
      <trkpt lat="42.121465" lon="-85.569026">
        <ele>261.556221</ele>
        <time>2021-08-14T08:32:17.000Z</time>
      </trkpt>
      <trkpt lat="42.121448" lon="-85.569382">
        <ele>261.501033</ele>
        <time>2021-08-14T08:32:20.000Z</time>
      </trkpt>
      <trkpt lat="42.121448" lon="-85.571237">
        <ele>261.271459</ele>
        <time>2021-08-14T08:32:35.000Z</time>
      </trkpt>
      <trkpt lat="42.121444" lon="-85.572039">
        <ele>261.197339</ele>
        <time>2021-08-14T08:32:42.000Z</time>
      </trkpt>
      <trkpt lat="42.12143" lon="-85.572674">
        <ele>261.137909</ele>
        <time>2021-08-14T08:32:47.000Z</time>
      </trkpt>
      <trkpt lat="42.121437" lon="-85.57458">
        <ele>261.067147</ele>
        <time>2021-08-14T08:33:03.000Z</time>
      </trkpt>
      <trkpt lat="42.121427" lon="-85.575059">
        <ele>261.049132</ele>
        <time>2021-08-14T08:33:07.000Z</time>
      </trkpt>
      <trkpt lat="42.12144" lon="-85.575594">
        <ele>261.074859</ele>
        <time>2021-08-14T08:33:11.000Z</time>
      </trkpt>
      <trkpt lat="42.121436" lon="-85.57794">
        <ele>261.224286</ele>
        <time>2021-08-14T08:33:30.000Z</time>
      </trkpt>
      <trkpt lat="42.121424" lon="-85.578123">
        <ele>261.241669</ele>
        <time>2021-08-14T08:33:32.000Z</time>
      </trkpt>
      <trkpt lat="42.121429" lon="-85.57819">
        <ele>261.248051</ele>
        <time>2021-08-14T08:33:33.000Z</time>
      </trkpt>
      <trkpt lat="42.121425" lon="-85.578452">
        <ele>261.272675</ele>
        <time>2021-08-14T08:33:35.000Z</time>
      </trkpt>
      <trkpt lat="42.121437" lon="-85.579143">
        <ele>261.337014</ele>
        <time>2021-08-14T08:33:41.000Z</time>
      </trkpt>
      <trkpt lat="42.121434" lon="-85.580006">
        <ele>261.409676</ele>
        <time>2021-08-14T08:33:48.000Z</time>
      </trkpt>
      <trkpt lat="42.121435" lon="-85.580608">
        <ele>261.331321</ele>
        <time>2021-08-14T08:33:53.000Z</time>
      </trkpt>
      <trkpt lat="42.121444" lon="-85.583585">
        <ele>261.311589</ele>
        <time>2021-08-14T08:34:18.000Z</time>
      </trkpt>
      <trkpt lat="42.121436" lon="-85.583851">
        <ele>261.356769</ele>
        <time>2021-08-14T08:34:20.000Z</time>
      </trkpt>
      <trkpt lat="42.121435" lon="-85.588537">
        <ele>263.570359</ele>
        <time>2021-08-14T08:34:59.000Z</time>
      </trkpt>
      <trkpt lat="42.12142" lon="-85.590618">
        <ele>263.976776</ele>
        <time>2021-08-14T08:35:16.000Z</time>
      </trkpt>
      <trkpt lat="42.121424" lon="-85.591942">
        <ele>263.939558</ele>
        <time>2021-08-14T08:35:27.000Z</time>
      </trkpt>
      <trkpt lat="42.121425" lon="-85.593035">
        <ele>263.837254</ele>
        <time>2021-08-14T08:35:36.000Z</time>
      </trkpt>
      <trkpt lat="42.121428" lon="-85.5935">
        <ele>263.788465</ele>
        <time>2021-08-14T08:35:40.000Z</time>
      </trkpt>
      <trkpt lat="42.121413" lon="-85.594485">
        <ele>263.686195</ele>
        <time>2021-08-14T08:35:48.000Z</time>
      </trkpt>
      <trkpt lat="42.121418" lon="-85.59621">
        <ele>263.31401</ele>
        <time>2021-08-14T08:36:02.000Z</time>
      </trkpt>
      <trkpt lat="42.12142" lon="-85.597606">
        <ele>263.047153</ele>
        <time>2021-08-14T08:36:14.000Z</time>
      </trkpt>
      <trkpt lat="42.121425" lon="-85.597719">
        <ele>263.028614</ele>
        <time>2021-08-14T08:36:15.000Z</time>
      </trkpt>
      <trkpt lat="42.121411" lon="-85.59781">
        <ele>263.011079</ele>
        <time>2021-08-14T08:36:16.000Z</time>
      </trkpt>
      <trkpt lat="42.12141" lon="-85.598201">
        <ele>262.946977</ele>
        <time>2021-08-14T08:36:19.000Z</time>
      </trkpt>
      <trkpt lat="42.121418" lon="-85.599044">
        <ele>262.805702</ele>
        <time>2021-08-14T08:36:26.000Z</time>
      </trkpt>
      <trkpt lat="42.121411" lon="-85.59925">
        <ele>262.771147</ele>
        <time>2021-08-14T08:36:28.000Z</time>
      </trkpt>
      <trkpt lat="42.121428" lon="-85.60227">
        <ele>262.001093</ele>
        <time>2021-08-14T08:36:53.000Z</time>
      </trkpt>
      <trkpt lat="42.12141" lon="-85.60344">
        <ele>261.864376</ele>
        <time>2021-08-14T08:37:03.000Z</time>
      </trkpt>
      <trkpt lat="42.121421" lon="-85.60386">
        <ele>261.81668</ele>
        <time>2021-08-14T08:37:06.000Z</time>
      </trkpt>
      <trkpt lat="42.121418" lon="-85.606755">
        <ele>262.439872</ele>
        <time>2021-08-14T08:37:30.000Z</time>
      </trkpt>
      <trkpt lat="42.121412" lon="-85.60807">
        <ele>262.947197</ele>
        <time>2021-08-14T08:37:41.000Z</time>
      </trkpt>
      <trkpt lat="42.121431" lon="-85.612676">
        <ele>264.8326</ele>
        <time>2021-08-14T08:38:19.000Z</time>
      </trkpt>
      <trkpt lat="42.12143" lon="-85.612807">
        <ele>264.883919</ele>
        <time>2021-08-14T08:38:20.000Z</time>
      </trkpt>
      <trkpt lat="42.121423" lon="-85.612893">
        <ele>264.915248</ele>
        <time>2021-08-14T08:38:21.000Z</time>
      </trkpt>
      <trkpt lat="42.12142" lon="-85.615626">
        <ele>265.724378</ele>
        <time>2021-08-14T08:38:44.000Z</time>
      </trkpt>
      <trkpt lat="42.12143" lon="-85.616605">
        <ele>265.91463</ele>
        <time>2021-08-14T08:38:52.000Z</time>
      </trkpt>
      <trkpt lat="42.121429" lon="-85.617778">
        <ele>265.96107</ele>
        <time>2021-08-14T08:39:02.000Z</time>
      </trkpt>
      <trkpt lat="42.121446" lon="-85.621879">
        <ele>265.913742</ele>
        <time>2021-08-14T08:39:36.000Z</time>
      </trkpt>
      <trkpt lat="42.121447" lon="-85.621973">
        <ele>265.903141</ele>
        <time>2021-08-14T08:39:37.000Z</time>
      </trkpt>
      <trkpt lat="42.121442" lon="-85.622989">
        <ele>265.785047</ele>
        <time>2021-08-14T08:39:45.000Z</time>
      </trkpt>
      <trkpt lat="42.121441" lon="-85.623272">
        <ele>265.752328</ele>
        <time>2021-08-14T08:39:47.000Z</time>
      </trkpt>
      <trkpt lat="42.121438" lon="-85.623393">
        <ele>265.739426</ele>
        <time>2021-08-14T08:39:48.000Z</time>
      </trkpt>
      <trkpt lat="42.121446" lon="-85.623756">
        <ele>265.687944</ele>
        <time>2021-08-14T08:39:51.000Z</time>
      </trkpt>
      <trkpt lat="42.121418" lon="-85.624727">
        <ele>265.506991</ele>
        <time>2021-08-14T08:39:59.000Z</time>
      </trkpt>
      <trkpt lat="42.121428" lon="-85.627508">
        <ele>265.105699</ele>
        <time>2021-08-14T08:40:22.000Z</time>
      </trkpt>
      <trkpt lat="42.122435" lon="-85.627517">
        <ele>265.00202</ele>
        <time>2021-08-14T08:40:33.000Z</time>
      </trkpt>
      <trkpt lat="42.123107" lon="-85.627525">
        <ele>265.001118</ele>
        <time>2021-08-14T08:40:40.000Z</time>
      </trkpt>
      <trkpt lat="42.124166" lon="-85.627556">
        <ele>265.000017</ele>
        <time>2021-08-14T08:40:52.000Z</time>
      </trkpt>
      <trkpt lat="42.124719" lon="-85.627584">
        <ele>265.000021</ele>
        <time>2021-08-14T08:40:58.000Z</time>
      </trkpt>
      <trkpt lat="42.125377" lon="-85.627601">
        <ele>265.000016</ele>
        <time>2021-08-14T08:41:05.000Z</time>
      </trkpt>
      <trkpt lat="42.126251" lon="-85.627625">
        <ele>265.000016</ele>
        <time>2021-08-14T08:41:15.000Z</time>
      </trkpt>
      <trkpt lat="42.127535" lon="-85.627659">
        <ele>265.00001</ele>
        <time>2021-08-14T08:41:29.000Z</time>
      </trkpt>
      <trkpt lat="42.129929" lon="-85.627718">
        <ele>265.000015</ele>
        <time>2021-08-14T08:41:56.000Z</time>
      </trkpt>
      <trkpt lat="42.130602" lon="-85.627729">
        <ele>265.000004</ele>
        <time>2021-08-14T08:42:03.000Z</time>
      </trkpt>
      <trkpt lat="42.133219" lon="-85.627779">
        <ele>265.000013</ele>
        <time>2021-08-14T08:42:32.000Z</time>
      </trkpt>
      <trkpt lat="42.133333" lon="-85.627785">
        <ele>265.000015</ele>
        <time>2021-08-14T08:42:33.000Z</time>
      </trkpt>
      <trkpt lat="42.141775" lon="-85.627952">
        <ele>264.994706</ele>
        <time>2021-08-14T08:44:07.000Z</time>
      </trkpt>
      <trkpt lat="42.142273" lon="-85.627956">
        <ele>264.98138</ele>
        <time>2021-08-14T08:44:13.000Z</time>
      </trkpt>
      <trkpt lat="42.142351" lon="-85.627967">
        <ele>264.977898</ele>
        <time>2021-08-14T08:44:14.000Z</time>
      </trkpt>
      <trkpt lat="42.143389" lon="-85.627978">
        <ele>264.939321</ele>
        <time>2021-08-14T08:44:26.000Z</time>
      </trkpt>
      <trkpt lat="42.143387" lon="-85.62768">
        <ele>264.930834</ele>
        <time>2021-08-14T08:44:28.000Z</time>
      </trkpt>
      <trkpt lat="42.143384" lon="-85.627378">
        <ele>264.943527</ele>
        <time>2021-08-14T08:44:30.000Z</time>
      </trkpt>
      <trkpt lat="42.143356" lon="-85.626124">
        <ele>265.074964</ele>
        <time>2021-08-14T08:44:40.000Z</time>
      </trkpt>
      <trkpt lat="42.143358" lon="-85.625566">
        <ele>265.133694</ele>
        <time>2021-08-14T08:44:45.000Z</time>
      </trkpt>
      <trkpt lat="42.143355" lon="-85.625222">
        <ele>265.169855</ele>
        <time>2021-08-14T08:44:48.000Z</time>
      </trkpt>
      <trkpt lat="42.143347" lon="-85.623802">
        <ele>265.418392</ele>
        <time>2021-08-14T08:45:00.000Z</time>
      </trkpt>
      <trkpt lat="42.143352" lon="-85.622358">
        <ele>265.610549</ele>
        <time>2021-08-14T08:45:12.000Z</time>
      </trkpt>
      <trkpt lat="42.143314" lon="-85.620717">
        <ele>265.556406</ele>
        <time>2021-08-14T08:45:26.000Z</time>
      </trkpt>
      <trkpt lat="42.143293" lon="-85.618987">
        <ele>265.400948</ele>
        <time>2021-08-14T08:45:40.000Z</time>
      </trkpt>
      <trkpt lat="42.1433" lon="-85.618069">
        <ele>265.301892</ele>
        <time>2021-08-14T08:45:48.000Z</time>
      </trkpt>
      <trkpt lat="42.143289" lon="-85.617821">
        <ele>265.274168</ele>
        <time>2021-08-14T08:45:50.000Z</time>
      </trkpt>
      <trkpt lat="42.143288" lon="-85.617369">
        <ele>265.234074</ele>
        <time>2021-08-14T08:45:54.000Z</time>
      </trkpt>
      <trkpt lat="42.143272" lon="-85.615547">
        <ele>265.076704</ele>
        <time>2021-08-14T08:46:09.000Z</time>
      </trkpt>
      <trkpt lat="42.143265" lon="-85.615198">
        <ele>265.058505</ele>
        <time>2021-08-14T08:46:12.000Z</time>
      </trkpt>
      <trkpt lat="42.143268" lon="-85.614115">
        <ele>265.026706</ele>
        <time>2021-08-14T08:46:21.000Z</time>
      </trkpt>
      <trkpt lat="42.143259" lon="-85.613276">
        <ele>265.001929</ele>
        <time>2021-08-14T08:46:28.000Z</time>
      </trkpt>
      <trkpt lat="42.143233" lon="-85.606193">
        <ele>264.713739</ele>
        <time>2021-08-14T08:47:26.000Z</time>
      </trkpt>
      <trkpt lat="42.143217" lon="-85.605642">
        <ele>264.629804</ele>
        <time>2021-08-14T08:47:31.000Z</time>
      </trkpt>
      <trkpt lat="42.143202" lon="-85.602823">
        <ele>263.426822</ele>
        <time>2021-08-14T08:47:54.000Z</time>
      </trkpt>
      <trkpt lat="42.143217" lon="-85.601038">
        <ele>262.703489</ele>
        <time>2021-08-14T08:48:09.000Z</time>
      </trkpt>
      <trkpt lat="42.143204" lon="-85.600435">
        <ele>262.559557</ele>
        <time>2021-08-14T08:48:14.000Z</time>
      </trkpt>
      <trkpt lat="42.143049" lon="-85.600128">
        <ele>262.498719</ele>
        <time>2021-08-14T08:48:17.000Z</time>
      </trkpt>
      <trkpt lat="42.142842" lon="-85.599974">
        <ele>262.449687</ele>
        <time>2021-08-14T08:48:20.000Z</time>
      </trkpt>
      <trkpt lat="42.142392" lon="-85.59982">
        <ele>262.348843</ele>
        <time>2021-08-14T08:48:25.000Z</time>
      </trkpt>
      <trkpt lat="42.14217" lon="-85.599542">
        <ele>262.28268</ele>
        <time>2021-08-14T08:48:28.000Z</time>
      </trkpt>
      <trkpt lat="42.141952" lon="-85.598294">
        <ele>262.223211</ele>
        <time>2021-08-14T08:48:39.000Z</time>
      </trkpt>
      <trkpt lat="42.141608" lon="-85.595751">
        <ele>262.257227</ele>
        <time>2021-08-14T08:49:00.000Z</time>
      </trkpt>
      <trkpt lat="42.141623" lon="-85.594423">
        <ele>262.327786</ele>
        <time>2021-08-14T08:49:11.000Z</time>
      </trkpt>
      <trkpt lat="42.141887" lon="-85.588853">
        <ele>263.165704</ele>
        <time>2021-08-14T08:49:57.000Z</time>
      </trkpt>
      <trkpt lat="42.141924" lon="-85.585849">
        <ele>263.49003</ele>
        <time>2021-08-14T08:50:22.000Z</time>
      </trkpt>
      <trkpt lat="42.141949" lon="-85.585559">
        <ele>263.516287</ele>
        <time>2021-08-14T08:50:24.000Z</time>
      </trkpt>
      <trkpt lat="42.142039" lon="-85.585359">
        <ele>263.537244</ele>
        <time>2021-08-14T08:50:26.000Z</time>
      </trkpt>
      <trkpt lat="42.142181" lon="-85.585244">
        <ele>263.559591</ele>
        <time>2021-08-14T08:50:28.000Z</time>
      </trkpt>
      <trkpt lat="42.142977" lon="-85.585236">
        <ele>263.655768</ele>
        <time>2021-08-14T08:50:37.000Z</time>
      </trkpt>
      <trkpt lat="42.143138" lon="-85.585114">
        <ele>263.676731</ele>
        <time>2021-08-14T08:50:39.000Z</time>
      </trkpt>
      <trkpt lat="42.143243" lon="-85.584789">
        <ele>263.708311</ele>
        <time>2021-08-14T08:50:42.000Z</time>
      </trkpt>
      <trkpt lat="42.143255" lon="-85.584042">
        <ele>263.773871</ele>
        <time>2021-08-14T08:50:48.000Z</time>
      </trkpt>
      <trkpt lat="42.143301" lon="-85.57974">
        <ele>264.706556</ele>
        <time>2021-08-14T08:51:23.000Z</time>
      </trkpt>
      <trkpt lat="42.143314" lon="-85.579336">
        <ele>264.785612</ele>
        <time>2021-08-14T08:51:26.000Z</time>
      </trkpt>
      <trkpt lat="42.143304" lon="-85.579022">
        <ele>264.846699</ele>
        <time>2021-08-14T08:51:29.000Z</time>
      </trkpt>
      <trkpt lat="42.14339" lon="-85.569423">
        <ele>264.964902</ele>
        <time>2021-08-14T08:52:48.000Z</time>
      </trkpt>
      <trkpt lat="42.138605" lon="-85.569346">
        <ele>264.472845</ele>
        <time>2021-08-14T08:53:41.000Z</time>
      </trkpt>
      <trkpt lat="42.134989" lon="-85.569279">
        <ele>263.816823</ele>
        <time>2021-08-14T08:54:21.000Z</time>
      </trkpt>
      <trkpt lat="42.128755" lon="-85.569157">
        <ele>261.754376</ele>
        <time>2021-08-14T08:55:30.000Z</time>
      </trkpt>
      <trkpt lat="42.128749" lon="-85.570182">
        <ele>261.624801</ele>
        <time>2021-08-14T08:55:38.000Z</time>
      </trkpt>
      <trkpt lat="42.128695" lon="-85.576012">
        <ele>261.049124</ele>
        <time>2021-08-14T08:56:26.000Z</time>
      </trkpt>
      <trkpt lat="42.128615" lon="-85.588644">
        <ele>263.622948</ele>
        <time>2021-08-14T08:58:10.000Z</time>
      </trkpt>
      <trkpt lat="42.128701" lon="-85.576014">
        <ele>261.109629</ele>
        <time>2021-08-14T08:59:54.000Z</time>
      </trkpt>
      <trkpt lat="42.128751" lon="-85.570176">
        <ele>261.48816</ele>
        <time>2021-08-14T09:00:42.000Z</time>
      </trkpt>
      <trkpt lat="42.128754" lon="-85.569164">
        <ele>261.5709</ele>
        <time>2021-08-14T09:00:50.000Z</time>
      </trkpt>
      <trkpt lat="42.123577" lon="-85.569079">
        <ele>261.790953</ele>
        <time>2021-08-14T09:01:48.000Z</time>
      </trkpt>
      <trkpt lat="42.123428" lon="-85.569073">
        <ele>261.782692</ele>
        <time>2021-08-14T09:01:50.000Z</time>
      </trkpt>
      <trkpt lat="42.12236" lon="-85.569066">
        <ele>261.694103</ele>
        <time>2021-08-14T09:02:02.000Z</time>
      </trkpt>
      <trkpt lat="42.121981" lon="-85.569064">
        <ele>261.662866</ele>
        <time>2021-08-14T09:02:06.000Z</time>
      </trkpt>
      <trkpt lat="42.121454" lon="-85.569026">
        <ele>261.582368</ele>
        <time>2021-08-14T09:02:12.000Z</time>
      </trkpt>
      <trkpt lat="42.121446" lon="-85.569377">
        <ele>261.52725</ele>
        <time>2021-08-14T09:02:15.000Z</time>
      </trkpt>
      <trkpt lat="42.121439" lon="-85.571236">
        <ele>261.250606</ele>
        <time>2021-08-14T09:02:30.000Z</time>
      </trkpt>
      <trkpt lat="42.121431" lon="-85.572033">
        <ele>261.198968</ele>
        <time>2021-08-14T09:02:37.000Z</time>
      </trkpt>
      <trkpt lat="42.121442" lon="-85.572671">
        <ele>261.157557</ele>
        <time>2021-08-14T09:02:42.000Z</time>
      </trkpt>
      <trkpt lat="42.121445" lon="-85.574584">
        <ele>261.078756</ele>
        <time>2021-08-14T09:02:58.000Z</time>
      </trkpt>
      <trkpt lat="42.121444" lon="-85.575066">
        <ele>261.067169</ele>
        <time>2021-08-14T09:03:02.000Z</time>
      </trkpt>
      <trkpt lat="42.12143" lon="-85.575592">
        <ele>261.054773</ele>
        <time>2021-08-14T09:03:06.000Z</time>
      </trkpt>
      <trkpt lat="42.12143" lon="-85.577934">
        <ele>261.246872</ele>
        <time>2021-08-14T09:03:25.000Z</time>
      </trkpt>
      <trkpt lat="42.121434" lon="-85.578117">
        <ele>261.265216</ele>
        <time>2021-08-14T09:03:27.000Z</time>
      </trkpt>
      <trkpt lat="42.121426" lon="-85.578189">
        <ele>261.271957</ele>
        <time>2021-08-14T09:03:28.000Z</time>
      </trkpt>
      <trkpt lat="42.121431" lon="-85.578454">
        <ele>261.290664</ele>
        <time>2021-08-14T09:03:30.000Z</time>
      </trkpt>
      <trkpt lat="42.121431" lon="-85.579133">
        <ele>261.311558</ele>
        <time>2021-08-14T09:03:36.000Z</time>
      </trkpt>
      <trkpt lat="42.121434" lon="-85.580003">
        <ele>261.338156</ele>
        <time>2021-08-14T09:03:43.000Z</time>
      </trkpt>
      <trkpt lat="42.121438" lon="-85.580609">
        <ele>261.356626</ele>
        <time>2021-08-14T09:03:48.000Z</time>
      </trkpt>
      <trkpt lat="42.121428" lon="-85.583589">
        <ele>261.194128</ele>
        <time>2021-08-14T09:04:13.000Z</time>
      </trkpt>
      <trkpt lat="42.121437" lon="-85.583854">
        <ele>261.300655</ele>
        <time>2021-08-14T09:04:15.000Z</time>
      </trkpt>
      <trkpt lat="42.121428" lon="-85.588553">
        <ele>263.627983</ele>
        <time>2021-08-14T09:04:54.000Z</time>
      </trkpt>
      <trkpt lat="42.121424" lon="-85.590616">
        <ele>264.018993</ele>
        <time>2021-08-14T09:05:11.000Z</time>
      </trkpt>
      <trkpt lat="42.121426" lon="-85.591944">
        <ele>263.942073</ele>
        <time>2021-08-14T09:05:22.000Z</time>
      </trkpt>
      <trkpt lat="42.12143" lon="-85.593036">
        <ele>263.865212</ele>
        <time>2021-08-14T09:05:31.000Z</time>
      </trkpt>
      <trkpt lat="42.12142" lon="-85.593494">
        <ele>263.791886</ele>
        <time>2021-08-14T09:05:35.000Z</time>
      </trkpt>
      <trkpt lat="42.12143" lon="-85.59448">
        <ele>263.638169</ele>
        <time>2021-08-14T09:05:43.000Z</time>
      </trkpt>
      <trkpt lat="42.12143" lon="-85.596227">
        <ele>263.332323</ele>
        <time>2021-08-14T09:05:57.000Z</time>
      </trkpt>
      <trkpt lat="42.121427" lon="-85.597593">
        <ele>263.064915</ele>
        <time>2021-08-14T09:06:08.000Z</time>
      </trkpt>
      <trkpt lat="42.12142" lon="-85.597718">
        <ele>263.043456</ele>
        <time>2021-08-14T09:06:09.000Z</time>
      </trkpt>
      <trkpt lat="42.121429" lon="-85.59781">
        <ele>263.021995</ele>
        <time>2021-08-14T09:06:10.000Z</time>
      </trkpt>
      <trkpt lat="42.121418" lon="-85.598198">
        <ele>262.941544</ele>
        <time>2021-08-14T09:06:13.000Z</time>
      </trkpt>
      <trkpt lat="42.121427" lon="-85.599056">
        <ele>262.764318</ele>
        <time>2021-08-14T09:06:20.000Z</time>
      </trkpt>
      <trkpt lat="42.121425" lon="-85.599247">
        <ele>262.720952</ele>
        <time>2021-08-14T09:06:22.000Z</time>
      </trkpt>
      <trkpt lat="42.121423" lon="-85.602275">
        <ele>261.953067</ele>
        <time>2021-08-14T09:06:47.000Z</time>
      </trkpt>
      <trkpt lat="42.121415" lon="-85.603439">
        <ele>261.883192</ele>
        <time>2021-08-14T09:06:57.000Z</time>
      </trkpt>
      <trkpt lat="42.121409" lon="-85.603849">
        <ele>261.893126</ele>
        <time>2021-08-14T09:07:00.000Z</time>
      </trkpt>
      <trkpt lat="42.12142" lon="-85.606765">
        <ele>262.459586</ele>
        <time>2021-08-14T09:07:24.000Z</time>
      </trkpt>
      <trkpt lat="42.121423" lon="-85.608066">
        <ele>262.931784</ele>
        <time>2021-08-14T09:07:35.000Z</time>
      </trkpt>
      <trkpt lat="42.121416" lon="-85.612687">
        <ele>264.853633</ele>
        <time>2021-08-14T09:08:13.000Z</time>
      </trkpt>
      <trkpt lat="42.121424" lon="-85.612806">
        <ele>264.898924</ele>
        <time>2021-08-14T09:08:14.000Z</time>
      </trkpt>
      <trkpt lat="42.121415" lon="-85.612904">
        <ele>264.926573</ele>
        <time>2021-08-14T09:08:15.000Z</time>
      </trkpt>
      <trkpt lat="42.121428" lon="-85.615623">
        <ele>265.699677</ele>
        <time>2021-08-14T09:08:37.000Z</time>
      </trkpt>
      <trkpt lat="42.121437" lon="-85.61662">
        <ele>265.882453</ele>
        <time>2021-08-14T09:08:45.000Z</time>
      </trkpt>
      <trkpt lat="42.12144" lon="-85.617777">
        <ele>265.985885</ele>
        <time>2021-08-14T09:08:55.000Z</time>
      </trkpt>
      <trkpt lat="42.121446" lon="-85.621879">
        <ele>265.942823</ele>
        <time>2021-08-14T09:09:29.000Z</time>
      </trkpt>
      <trkpt lat="42.12144" lon="-85.621959">
        <ele>265.940541</ele>
        <time>2021-08-14T09:09:30.000Z</time>
      </trkpt>
      <trkpt lat="42.121444" lon="-85.622994">
        <ele>265.787955</ele>
        <time>2021-08-14T09:09:39.000Z</time>
      </trkpt>
      <trkpt lat="42.121438" lon="-85.623281">
        <ele>265.744612</ele>
        <time>2021-08-14T09:09:41.000Z</time>
      </trkpt>
      <trkpt lat="42.121437" lon="-85.623385">
        <ele>265.727515</ele>
        <time>2021-08-14T09:09:42.000Z</time>
      </trkpt>
      <trkpt lat="42.121429" lon="-85.623746">
        <ele>265.671799</ele>
        <time>2021-08-14T09:09:45.000Z</time>
      </trkpt>
      <trkpt lat="42.121419" lon="-85.624735">
        <ele>265.513873</ele>
        <time>2021-08-14T09:09:53.000Z</time>
      </trkpt>
      <trkpt lat="42.121437" lon="-85.627504">
        <ele>265.094795</ele>
        <time>2021-08-14T09:10:16.000Z</time>
      </trkpt>
      <trkpt lat="42.122426" lon="-85.627521">
        <ele>265.021961</ele>
        <time>2021-08-14T09:10:27.000Z</time>
      </trkpt>
      <trkpt lat="42.123123" lon="-85.627538">
        <ele>265.000008</ele>
        <time>2021-08-14T09:10:35.000Z</time>
      </trkpt>
      <trkpt lat="42.124157" lon="-85.627557">
        <ele>265.000005</ele>
        <time>2021-08-14T09:10:46.000Z</time>
      </trkpt>
      <trkpt lat="42.12472" lon="-85.627572">
        <ele>265.000005</ele>
        <time>2021-08-14T09:10:52.000Z</time>
      </trkpt>
      <trkpt lat="42.125382" lon="-85.627606">
        <ele>265.000014</ele>
        <time>2021-08-14T09:10:59.000Z</time>
      </trkpt>
      <trkpt lat="42.126247" lon="-85.627627">
        <ele>265.000015</ele>
        <time>2021-08-14T09:11:09.000Z</time>
      </trkpt>
      <trkpt lat="42.127545" lon="-85.627671">
        <ele>265.000005</ele>
        <time>2021-08-14T09:11:23.000Z</time>
      </trkpt>
      <trkpt lat="42.129919" lon="-85.627716">
        <ele>265.000008</ele>
        <time>2021-08-14T09:11:49.000Z</time>
      </trkpt>
      <trkpt lat="42.130607" lon="-85.627735">
        <ele>265.000017</ele>
        <time>2021-08-14T09:11:57.000Z</time>
      </trkpt>
      <trkpt lat="42.133218" lon="-85.62778">
        <ele>265.000012</ele>
        <time>2021-08-14T09:12:26.000Z</time>
      </trkpt>
      <trkpt lat="42.133346" lon="-85.627795">
        <ele>265.000008</ele>
        <time>2021-08-14T09:12:27.000Z</time>
      </trkpt>
      <trkpt lat="42.141787" lon="-85.627954">
        <ele>264.982224</ele>
        <time>2021-08-14T09:14:01.000Z</time>
      </trkpt>
      <trkpt lat="42.142262" lon="-85.627966">
        <ele>264.974063</ele>
        <time>2021-08-14T09:14:06.000Z</time>
      </trkpt>
      <trkpt lat="42.142365" lon="-85.627964">
        <ele>264.972511</ele>
        <time>2021-08-14T09:14:07.000Z</time>
      </trkpt>
      <trkpt lat="42.143385" lon="-85.627993">
        <ele>264.966948</ele>
        <time>2021-08-14T09:14:18.000Z</time>
      </trkpt>
      <trkpt lat="42.14339" lon="-85.627678">
        <ele>264.966194</ele>
        <time>2021-08-14T09:14:21.000Z</time>
      </trkpt>
      <trkpt lat="42.143388" lon="-85.627374">
        <ele>264.965461</ele>
        <time>2021-08-14T09:14:24.000Z</time>
      </trkpt>
      <trkpt lat="42.143359" lon="-85.626126">
        <ele>265.06066</ele>
        <time>2021-08-14T09:14:34.000Z</time>
      </trkpt>
      <trkpt lat="42.143344" lon="-85.625562">
        <ele>265.149516</ele>
        <time>2021-08-14T09:14:39.000Z</time>
      </trkpt>
      <trkpt lat="42.143345" lon="-85.625212">
        <ele>265.204222</ele>
        <time>2021-08-14T09:14:42.000Z</time>
      </trkpt>
      <trkpt lat="42.143339" lon="-85.623801">
        <ele>265.409896</ele>
        <time>2021-08-14T09:14:54.000Z</time>
      </trkpt>
      <trkpt lat="42.143334" lon="-85.622346">
        <ele>265.59119</ele>
        <time>2021-08-14T09:15:06.000Z</time>
      </trkpt>
      <trkpt lat="42.143316" lon="-85.620716">
        <ele>265.555692</ele>
        <time>2021-08-14T09:15:19.000Z</time>
      </trkpt>
      <trkpt lat="42.143302" lon="-85.618977">
        <ele>265.4054</ele>
        <time>2021-08-14T09:15:33.000Z</time>
      </trkpt>
      <trkpt lat="42.143295" lon="-85.618072">
        <ele>265.310345</ele>
        <time>2021-08-14T09:15:40.000Z</time>
      </trkpt>
      <trkpt lat="42.143295" lon="-85.617818">
        <ele>265.28336</ele>
        <time>2021-08-14T09:15:42.000Z</time>
      </trkpt>
      <trkpt lat="42.143282" lon="-85.617363">
        <ele>265.23493</ele>
        <time>2021-08-14T09:15:46.000Z</time>
      </trkpt>
      <trkpt lat="42.14327" lon="-85.615547">
        <ele>265.089735</ele>
        <time>2021-08-14T09:16:01.000Z</time>
      </trkpt>
      <trkpt lat="42.143271" lon="-85.615192">
        <ele>265.06347</ele>
        <time>2021-08-14T09:16:04.000Z</time>
      </trkpt>
      <trkpt lat="42.143262" lon="-85.614122">
        <ele>265.012268</ele>
        <time>2021-08-14T09:16:13.000Z</time>
      </trkpt>
      <trkpt lat="42.14326" lon="-85.613281">
        <ele>265.00019</ele>
        <time>2021-08-14T09:16:20.000Z</time>
      </trkpt>
      <trkpt lat="42.143224" lon="-85.606199">
        <ele>264.653923</ele>
        <time>2021-08-14T09:17:18.000Z</time>
      </trkpt>
      <trkpt lat="42.143221" lon="-85.605639">
        <ele>264.525473</ele>
        <time>2021-08-14T09:17:23.000Z</time>
      </trkpt>
      <trkpt lat="42.143204" lon="-85.602818">
        <ele>263.404518</ele>
        <time>2021-08-14T09:17:46.000Z</time>
      </trkpt>
      <trkpt lat="42.143212" lon="-85.601038">
        <ele>262.769983</ele>
        <time>2021-08-14T09:18:01.000Z</time>
      </trkpt>
      <trkpt lat="42.143207" lon="-85.600431">
        <ele>262.566608</ele>
        <time>2021-08-14T09:18:06.000Z</time>
      </trkpt>
      <trkpt lat="42.143032" lon="-85.600127">
        <ele>262.440354</ele>
        <time>2021-08-14T09:18:09.000Z</time>
      </trkpt>
      <trkpt lat="42.142839" lon="-85.599966">
        <ele>262.410067</ele>
        <time>2021-08-14T09:18:12.000Z</time>
      </trkpt>
      <trkpt lat="42.142385" lon="-85.599826">
        <ele>262.347832</ele>
        <time>2021-08-14T09:18:17.000Z</time>
      </trkpt>
      <trkpt lat="42.142171" lon="-85.59953">
        <ele>262.306992</ele>
        <time>2021-08-14T09:18:20.000Z</time>
      </trkpt>
      <trkpt lat="42.141961" lon="-85.598293">
        <ele>262.201813</ele>
        <time>2021-08-14T09:18:30.000Z</time>
      </trkpt>
      <trkpt lat="42.141617" lon="-85.595751">
        <ele>262.243285</ele>
        <time>2021-08-14T09:18:51.000Z</time>
      </trkpt>
      <trkpt lat="42.141611" lon="-85.59442">
        <ele>262.358499</ele>
        <time>2021-08-14T09:19:02.000Z</time>
      </trkpt>
      <trkpt lat="42.141896" lon="-85.588856">
        <ele>263.181291</ele>
        <time>2021-08-14T09:19:48.000Z</time>
      </trkpt>
      <trkpt lat="42.141917" lon="-85.585838">
        <ele>263.491961</ele>
        <time>2021-08-14T09:20:13.000Z</time>
      </trkpt>
      <trkpt lat="42.141962" lon="-85.585565">
        <ele>263.510387</ele>
        <time>2021-08-14T09:20:15.000Z</time>
      </trkpt>
      <trkpt lat="42.142036" lon="-85.585366">
        <ele>263.525095</ele>
        <time>2021-08-14T09:20:17.000Z</time>
      </trkpt>
      <trkpt lat="42.142188" lon="-85.58524">
        <ele>263.540758</ele>
        <time>2021-08-14T09:20:19.000Z</time>
      </trkpt>
      <trkpt lat="42.142991" lon="-85.585224">
        <ele>263.610087</ele>
        <time>2021-08-14T09:20:28.000Z</time>
      </trkpt>
      <trkpt lat="42.143139" lon="-85.585101">
        <ele>263.643971</ele>
        <time>2021-08-14T09:20:30.000Z</time>
      </trkpt>
      <trkpt lat="42.14324" lon="-85.584779">
        <ele>263.698918</ele>
        <time>2021-08-14T09:20:33.000Z</time>
      </trkpt>
      <trkpt lat="42.143246" lon="-85.584039">
        <ele>263.812932</ele>
        <time>2021-08-14T09:20:39.000Z</time>
      </trkpt>
      <trkpt lat="42.143305" lon="-85.579738">
        <ele>264.719564</ele>
        <time>2021-08-14T09:21:14.000Z</time>
      </trkpt>
      <trkpt lat="42.143305" lon="-85.579329">
        <ele>264.780182</ele>
        <time>2021-08-14T09:21:17.000Z</time>
      </trkpt>
      <trkpt lat="42.144494" lon="-85.579361">
        <ele>264.95795</ele>
        <time>2021-08-14T09:21:30.000Z</time>
      </trkpt>
      <trkpt lat="42.145779" lon="-85.579369">
        <ele>264.904729</ele>
        <time>2021-08-14T09:21:44.000Z</time>
      </trkpt>
      <trkpt lat="42.146132" lon="-85.579391">
        <ele>264.851087</ele>
        <time>2021-08-14T09:21:48.000Z</time>
      </trkpt>
      <trkpt lat="42.146848" lon="-85.57939">
        <ele>264.547303</ele>
        <time>2021-08-14T09:21:56.000Z</time>
      </trkpt>
      <trkpt lat="42.146844" lon="-85.582389">
        <ele>263.399919</ele>
        <time>2021-08-14T09:22:21.000Z</time>
      </trkpt>
      <trkpt lat="42.147783" lon="-85.582014">
        <ele>262.724990094</ele>
        <time>2021-08-14T09:22:32.000Z</time>
      </trkpt>
      <trkpt lat="42.148286" lon="-85.581683">
        <ele>262.339265017</ele>
        <time>2021-08-14T09:22:38.000Z</time>
      </trkpt>
      <trkpt lat="42.148577" lon="-85.581656">
        <ele>262.138234707</ele>
        <time>2021-08-14T09:22:41.000Z</time>
      </trkpt>
      <trkpt lat="42.148745" lon="-85.581733">
        <ele>262.015947238</ele>
        <time>2021-08-14T09:22:43.000Z</time>
      </trkpt>
      <trkpt lat="42.149268" lon="-85.582051">
        <ele>261.620565188</ele>
        <time>2021-08-14T09:22:49.000Z</time>
      </trkpt>
    </trkseg>
  </trk>
</gpx>

<!--
Performance optimized by W3 Total Cache. Learn more: https://www.boldgrid.com/w3-total-cache/?utm_source=w3tc&utm_medium=footer_comment&utm_campaign=free_plugin

Page Caching using Disk: Enhanced{w3tc_pagecache_reject_reason} 

Served from: www.aquabike.world @ 2026-05-02 19:27:22 by W3 Total Cache
-->